< < Back
Terminal Aerodrome Forecast


Current Version              Previous Versions:   1  2  3  4  5  6  7  8  9  

Terminal Aerodrome Forecast

898
FTUS42 KTAE 261120
TAFTLH
TAF
KTLH 261120Z 2612/2712 26005KT P6SM FEW060
     FM261900 17010KT 6SM TSRA SCT025CB BKN040
     FM262200 24004KT P6SM SCT040 BKN250=

Latest METAR

029
SAUS80 KWBC 270700 RRB
MTRTLH
METAR KTLH 270653Z AUTO 00000KT 10SM CLR 23/22 A3007 RMK AO2 SLP181
T02330217 $


USA.gov is the U.S. government's official web portal to all federal, state and local government web resources and services.